Time;durP1;ratioP1;P1;durP2;ratioP2;P2;SDS_P1;SDS_P2;PMS_P1;PMS_P2;Temp;Humidity;BMP_temperature;BMP_pressure;BME280_temperature;BME280_humidity;BME280_pressure;Samples;Min_cycle;Max_cycle;Signal;HPM_P1;HPM_P2
2023/01/17 00:00:53;;;;;;;32.70;18.40;;;;;;;2.15;74.75;97258.59;30752607;28;97341;-67
2023/01/17 00:15:53;;;;;;;31.98;16.05;;;;;;;1.82;75.77;97259.09;30751705;28;96825;-69
2023/01/17 01:47:17;;;;;;;15.10;7.93;;;;;;;0.94;79.65;97256.44;30743341;28;97021;-68
2023/01/17 02:02:17;;;;;;;6.25;4.20;;;;;;;1.04;79.98;97256.16;30741478;28;97386;-68
2023/01/17 02:17:27;;;;;;;7.47;4.32;;;;;;;1.56;78.56;97246.50;30740114;28;96771;-69
2023/01/17 02:32:45;;;;;;;5.00;2.78;;;;;;;1.56;77.68;97244.69;30739127;28;96750;-69
2023/01/17 02:47:46;;;;;;;8.88;3.72;;;;;;;1.64;77.45;97226.22;30736766;28;97159;-68
2023/01/17 03:02:55;;;;;;;5.05;3.35;;;;;;;1.78;77.28;97227.16;30736124;28;96720;-70
2023/01/17 03:18:02;;;;;;;3.78;2.00;;;;;;;1.92;76.54;97232.53;30733894;28;96548;-68
2023/01/17 03:33:02;;;;;;;5.22;2.97;;;;;;;2.06;76.44;97233.47;30733939;28;96564;-67
2023/01/17 03:48:03;;;;;;;4.93;2.47;;;;;;;2.08;75.14;97231.44;30730973;28;96698;-68
2023/01/17 04:03:03;;;;;;;13.40;5.65;;;;;;;1.51;75.31;97231.31;30731260;28;96677;-68
2023/01/17 04:18:05;;;;;;;8.45;3.90;;;;;;;1.27;76.35;97261.28;30728822;28;96968;-67
2023/01/17 04:33:06;;;;;;;8.02;3.75;;;;;;;1.11;76.11;97262.31;30736806;28;96539;-67
2023/01/17 04:48:06;;;;;;;4.72;2.30;;;;;;;0.78;75.88;97278.38;30745318;28;96559;-68
2023/01/17 05:03:07;;;;;;;6.32;2.88;;;;;;;0.87;76.82;97266.81;30744226;28;96726;-67
2023/01/17 05:18:14;;;;;;;2.72;1.83;;;;;;;1.12;76.53;97274.41;30741100;28;96856;-66
2023/01/17 05:33:14;;;;;;;4.25;1.90;;;;;;;1.08;76.06;97263.50;30740833;28;96550;-66
2023/01/17 05:48:15;;;;;;;4.22;2.50;;;;;;;0.99;75.96;97261.94;30731904;28;97778;-67
2023/01/17 06:03:15;;;;;;;1.92;1.40;;;;;;;1.03;76.09;97286.81;30767055;28;96751;-68
2023/01/17 06:18:16;;;;;;;3.33;2.05;;;;;;;1.29;75.57;97294.22;30778044;28;97365;-69
2023/01/17 06:33:17;;;;;;;2.80;1.77;;;;;;;1.57;75.58;97306.66;30730465;28;96884;-66
2023/01/17 06:48:17;;;;;;;3.15;2.25;;;;;;;2.43;73.64;97320.88;30739445;28;96783;-67
2023/01/17 07:03:20;;;;;;;3.53;1.90;;;;;;;2.71;72.30;97337.50;30808592;28;98397;-68
2023/01/17 07:18:23;;;;;;;4.55;1.80;;;;;;;2.81;71.26;97363.44;30850831;28;96754;-68
2023/01/17 07:33:24;;;;;;;5.45;2.92;;;;;;;2.59;70.27;97375.81;30850982;28;96619;-72
2023/01/17 07:48:24;;;;;;;5.32;2.22;;;;;;;2.37;70.91;97375.78;30847003;28;97402;-72
2023/01/17 08:03:25;;;;;;;5.40;2.30;;;;;;;2.40;70.39;97408.75;30849519;28;97227;-71
2023/01/17 08:18:25;;;;;;;2.85;2.08;;;;;;;2.79;70.65;97417.22;30867634;28;97157;-71
2023/01/17 08:33:26;;;;;;;3.10;1.90;;;;;;;3.60;69.47;97424.72;30867409;28;96573;-74
2023/01/17 08:48:26;;;;;;;8.57;2.08;;;;;;;6.04;64.51;97435.22;30864208;28;97330;-65
2023/01/17 09:03:26;;;;;;;4.93;2.53;;;;;;;8.68;61.84;97447.66;30863181;28;97102;-70
2023/01/17 09:18:29;;;;;;;5.85;2.60;;;;;;;6.74;61.14;97458.25;30849728;28;97419;-69
2023/01/17 09:33:30;;;;;;;6.65;3.42;;;;;;;7.76;58.95;97459.09;30824625;28;97486;-73
2023/01/17 09:48:36;;;;;;;1.98;1.40;;;;;;;15.86;46.81;97466.97;30788518;28;96726;-75
2023/01/17 10:03:45;;;;;;;4.03;2.10;;;;;;;20.08;34.44;97473.56;30809744;28;97454;-71
2023/01/17 10:19:10;;;;;;;1.73;1.37;;;;;;;19.67;31.08;97463.47;30737707;28;96699;-72
2023/01/17 10:34:20;;;;;;;1.97;0.93;;;;;;;20.71;27.13;97494.78;30768495;28;98615;-77
2023/01/17 10:49:23;;;;;;;1.97;1.03;;;;;;;22.76;23.73;97485.44;30751435;28;97177;-73
2023/01/17 11:04:39;;;;;;;2.97;1.37;;;;;;;21.94;22.56;97486.53;30754689;28;97717;-76
2023/01/17 11:19:40;;;;;;;3.23;1.53;;;;;;;24.77;20.84;97485.06;30730826;28;97158;-71
2023/01/17 11:34:40;;;;;;;2.83;1.27;;;;;;;18.03;27.74;97482.66;30733753;28;98136;-73
2023/01/17 11:49:43;;;;;;;3.60;2.08;;;;;;;23.74;20.71;97476.94;30797504;28;96991;-72
2023/01/17 12:05:22;;;;;;;3.07;1.07;;;;;;;24.66;18.80;97472.97;30807900;28;97468;-75
2023/01/17 12:20:32;;;;;;;2.13;0.87;;;;;;;24.09;19.33;97471.44;30786968;28;99221;-69
2023/01/17 12:35:39;;;;;;;2.33;1.10;;;;;;;25.90;17.66;97463.41;30781173;28;97572;-68
2023/01/17 12:50:48;;;;;;;1.97;1.00;;;;;;;24.53;18.24;97457.63;30762929;28;97363;-73
2023/01/17 13:05:51;;;;;;;3.27;1.17;;;;;;;23.94;18.34;97470.06;30763352;28;98057;-70
2023/01/17 13:21:24;;;;;;;1.30;0.60;;;;;;;18.54;23.87;97494.78;30746059;28;99330;-70
2023/01/17 13:36:39;;;;;;;2.10;0.97;;;;;;;18.06;24.45;97541.38;30712085;28;97249;-69
2023/01/17 13:52:10;;;;;;;2.37;1.03;;;;;;;19.84;22.01;97564.78;30704762;28;98132;-73
2023/01/17 14:07:24;;;;;;;3.30;0.70;;;;;;;18.37;22.26;97568.00;30750363;28;98386;-70
2023/01/17 14:22:27;;;;;;;2.23;1.20;;;;;;;13.23;27.16;97628.25;30712477;28;97226;-69
2023/01/17 14:37:49;;;;;;;2.90;1.10;;;;;;;12.90;29.26;97664.72;30779453;28;98304;-70
2023/01/17 14:53:11;;;;;;;3.00;1.43;;;;;;;8.21;36.00;97680.78;30825176;28;97477;-69
2023/01/17 15:08:16;;;;;;;4.13;1.80;;;;;;;5.67;40.90;97683.16;30857079;28;97524;-67
2023/01/17 15:23:19;;;;;;;3.72;1.13;;;;;;;4.46;43.42;97684.44;30842839;28;97247;-76
2023/01/17 15:38:21;;;;;;;3.40;1.30;;;;;;;3.54;45.29;97683.44;30839131;28;97338;-72
2023/01/17 15:53:31;;;;;;;1.45;1.10;;;;;;;2.85;46.95;97684.69;30865670;28;97905;-71
2023/01/17 16:08:35;;;;;;;3.55;1.60;;;;;;;2.40;48.09;97671.53;30848457;28;97621;-75
2023/01/17 16:23:36;;;;;;;4.03;2.07;;;;;;;1.94;48.62;97647.97;30906863;28;97421;-68
2023/01/17 16:38:36;;;;;;;9.75;4.07;;;;;;;1.60;49.94;97634.31;30883977;28;97279;-71
2023/01/17 16:53:37;;;;;;;11.02;5.13;;;;;;;1.16;50.37;97642.78;30923723;28;97309;-70
2023/01/17 17:08:38;;;;;;;15.13;4.97;;;;;;;0.99;51.64;97644.69;30872523;28;97819;-68
2023/01/17 17:23:39;;;;;;;17.60;7.28;;;;;;;0.58;52.01;97650.91;30951844;28;97112;-70
2023/01/17 17:38:52;;;;;;;22.25;9.32;;;;;;;0.26;53.44;97676.22;30874177;28;97262;-68
2023/01/17 17:53:54;;;;;;;17.35;8.25;;;;;;;0.47;54.14;97662.56;30849462;28;97263;-67
2023/01/17 18:08:54;;;;;;;24.90;10.43;;;;;;;0.27;54.45;97706.63;30847300;28;97688;-70
2023/01/17 18:24:04;;;;;;;33.28;15.68;;;;;;;0.38;55.08;97691.56;30847710;28;97279;-69
2023/01/17 18:39:23;;;;;;;49.70;20.08;;;;;;;0.20;55.57;97726.63;30844896;28;97275;-71
2023/01/17 18:54:23;;;;;;;46.45;18.95;;;;;;;0.17;56.39;97730.38;30807107;28;97577;-68
2023/01/17 19:09:24;;;;;;;50.10;21.42;;;;;;;0.22;56.32;97735.13;30855078;28;96870;-68
2023/01/17 19:24:25;;;;;;;40.60;19.80;;;;;;;0.27;56.64;97709.25;30852064;28;96663;-68
2023/01/17 19:39:27;;;;;;;52.97;20.65;;;;;;;0.03;57.34;97731.06;30852550;28;96888;-67
2023/01/17 19:54:27;;;;;;;43.53;18.55;;;;;;;-0.33;58.19;97717.44;30885209;28;97418;-68
2023/01/17 20:09:29;;;;;;;41.47;17.25;;;;;;;-0.49;59.04;97710.38;30917450;28;96822;-67
2023/01/17 20:24:33;;;;;;;40.38;18.20;;;;;;;-0.80;59.53;97722.22;30929165;28;97416;-68
2023/01/17 20:39:33;;;;;;;45.92;18.42;;;;;;;-0.97;59.99;97728.38;30950411;28;97695;-67
2023/01/17 20:54:34;;;;;;;33.55;16.92;;;;;;;-1.09;61.13;97725.25;30989370;28;96978;-66
2023/01/17 21:09:35;;;;;;;33.92;16.02;;;;;;;-1.10;62.16;97724.41;30964561;28;97265;-67
2023/01/17 21:24:35;;;;;;;37.80;17.80;;;;;;;-0.78;62.10;97717.69;30865426;28;96606;-67
2023/01/17 21:39:37;;;;;;;43.83;14.63;;;;;;;-0.86;62.54;97686.28;30864491;28;97121;-68
2023/01/17 22:09:56;;;;;;;27.45;14.65;;;;;;;-1.08;63.85;97690.28;30861254;28;96670;-67
2023/01/17 22:24:57;;;;;;;32.10;13.05;;;;;;;-1.13;64.55;97703.81;30859915;28;97074;-67
2023/01/17 22:39:59;;;;;;;31.40;13.77;;;;;;;-0.97;64.45;97686.56;30859809;28;97435;-67
2023/01/17 22:54:59;;;;;;;28.88;11.95;;;;;;;-0.80;64.72;97677.78;30853895;28;97429;-68
2023/01/17 23:09:59;;;;;;;29.02;12.50;;;;;;;-0.88;65.17;97651.63;30849283;28;96682;-68
2023/01/17 23:25:08;;;;;;;26.23;13.95;;;;;;;-0.44;66.15;97658.41;30848392;28;97273;-68
2023/01/17 23:40:09;;;;;;;35.65;16.13;;;;;;;-0.25;66.05;97657.28;30847291;28;97010;-68
2023/01/17 23:55:09;;;;;;;37.30;16.88;;;;;;;-0.12;66.25;97628.81;30808185;28;1212544;-68
